Coronel Artilleria Victor Larrea Airport


Codes: SERO/ETR
Name: Coronel Artilleria Victor Larrea Airport
City: Santa Rosa
Country: Ecuador
Elevation: 170 ft.

Photos at Coronel Artilleria Victor Larrea Airport


   Photos courtesy of SpottingLog. You can add your own sightings and photos by signing up for a free trial today.



No photos found.

Weather at Coronel Artilleria Victor Larrea Airport


Time (UTC)DescriptionTempratureWindCloud coverageVisibilityPressureHumidity
25-Jun-2024 15:00Overcast Clouds25°C2 mph, NW96%10000m1013hPa82%
25-Jun-2024 18:00Overcast Clouds28°C9 mph, NW91%10000m1012hPa68%
25-Jun-2024 21:00Broken Clouds27°C7 mph, NW76%10000m1012hPa71%
26-Jun-2024 00:00Light Rain24°C4 mph, NW87%10000m1014hPa82%
26-Jun-2024 03:00Light Rain23°C2 mph, NW100%10000m1016hPa87%
26-Jun-2024 06:00Overcast Clouds22°C0 mph, SW100%10000m1015hPa87%
26-Jun-2024 09:00Overcast Clouds22°C0 mph, W100%10000m1014hPa88%
26-Jun-2024 12:00Overcast Clouds22°C2 mph, E100%10000m1014hPa88%
26-Jun-2024 15:00Overcast Clouds28°C2 mph, NW93%10000m1015hPa65%
26-Jun-2024 18:00Broken Clouds31°C7 mph, NW63%10000m1011hPa52%
26-Jun-2024 21:00Light Rain28°C7 mph, NW49%10000m1010hPa62%
27-Jun-2024 00:00Light Rain24°C2 mph, W71%10000m1013hPa84%
27-Jun-2024 03:00Overcast Clouds23°C2 mph, W100%10000m1015hPa85%
27-Jun-2024 06:00Overcast Clouds22°C0 mph, W94%10000m1014hPa89%
27-Jun-2024 09:00Broken Clouds21°C0 mph, N63%10000m1013hPa91%
27-Jun-2024 12:00Broken Clouds22°C0 mph, N76%10000m1014hPa88%
27-Jun-2024 15:00Overcast Clouds27°C2 mph, NW92%10000m1014hPa68%
27-Jun-2024 18:00Broken Clouds30°C7 mph, NW78%10000m1011hPa56%
27-Jun-2024 21:00Light Rain27°C9 mph, NW70%10000m1010hPa67%
28-Jun-2024 00:00Broken Clouds23°C2 mph, NW75%10000m1012hPa85%
28-Jun-2024 03:00Overcast Clouds23°C0 mph, NW96%10000m1015hPa86%
28-Jun-2024 06:00Overcast Clouds23°C2 mph, NW96%10000m1014hPa88%
28-Jun-2024 09:00Overcast Clouds22°C0 mph, W98%10000m1013hPa87%
28-Jun-2024 12:00Overcast Clouds22°C2 mph, N88%10000m1014hPa88%
28-Jun-2024 15:00Broken Clouds27°C2 mph, NW83%10000m1014hPa66%
28-Jun-2024 18:00Broken Clouds29°C9 mph, NW78%10000m1012hPa59%
28-Jun-2024 21:00Overcast Clouds27°C7 mph, NW92%10000m1011hPa67%
29-Jun-2024 00:00Broken Clouds23°C2 mph, NW75%10000m1013hPa85%
29-Jun-2024 03:00Broken Clouds23°C2 mph, W83%10000m1015hPa87%
29-Jun-2024 06:00Overcast Clouds23°C0 mph, W85%10000m1014hPa89%
29-Jun-2024 09:00Overcast Clouds22°C0 mph, W100%10000m1013hPa89%
29-Jun-2024 12:00Overcast Clouds22°C0 mph, NE95%10000m1014hPa90%
29-Jun-2024 15:00Overcast Clouds27°C2 mph, NW87%10000m1015hPa70%
29-Jun-2024 18:00Broken Clouds30°C7 mph, NW69%10000m1012hPa56%
29-Jun-2024 21:00Scattered Clouds29°C7 mph, NW31%10000m1010hPa62%
30-Jun-2024 00:00Light Rain24°C2 mph, W45%10000m1012hPa82%
30-Jun-2024 03:00Light Rain23°C0 mph, N81%10000m1014hPa88%
30-Jun-2024 06:00Light Rain23°C0 mph, NW85%10000m1014hPa92%
30-Jun-2024 09:00Broken Clouds22°C0 mph, NE79%10000m1013hPa93%
30-Jun-2024 12:00Broken Clouds23°C0 mph, SE82%10000m1014hPa90%